Time;durP1;ratioP1;P1;durP2;ratioP2;P2;SDS_P1;SDS_P2;PMS_P1;PMS_P2;Temp;Humidity;BMP_temperature;BMP_pressure;BME280_temperature;BME280_humidity;BME280_pressure;Samples;Min_cycle;Max_cycle;Signal;HPM_P1;HPM_P2
2022/06/21 00:00:46;;;;;;;0.10;0.10;;;;;;;22.34;64.36;100230.00;4992786;28;20038;-75
2022/06/21 00:03:16;;;;;;;0.10;0.10;;;;;;;22.41;64.29;100235.50;4976767;28;20481;-75
2022/06/21 00:05:45;;;;;;;0.10;0.10;;;;;;;22.31;64.70;100230.09;4976451;28;20034;-75
2022/06/21 00:08:31;;;;;;;0.10;0.10;;;;;;;22.20;64.84;100231.13;4976454;28;20026;-75
2022/06/21 00:10:58;;;;;;;0.20;0.20;;;;;;;22.24;65.00;100231.06;4976382;28;20038;-75
2022/06/21 00:13:30;;;;;;;0.10;0.10;;;;;;;22.14;65.37;100232.91;4976121;28;20050;-75
2022/06/21 00:16:03;;;;;;;0.10;0.10;;;;;;;22.11;65.22;100227.34;4992589;28;20238;-75
2022/06/21 00:18:31;;;;;;;0.10;0.10;;;;;;;22.17;65.25;100225.59;4992767;28;20035;-75
2022/06/21 00:20:57;;;;;;;0.10;0.10;;;;;;;22.18;64.83;100227.97;4976773;28;20027;-75
2022/06/21 00:23:26;;;;;;;0.10;0.10;;;;;;;22.17;64.97;100225.59;4976508;28;20054;-75
2022/06/21 00:25:52;;;;;;;0.10;0.10;;;;;;;22.13;64.99;100224.84;4992663;28;20023;-75
2022/06/21 00:28:20;;;;;;;0.10;0.10;;;;;;;22.19;64.57;100223.09;4992827;28;20039;-75
2022/06/21 00:30:47;;;;;;;0.10;0.10;;;;;;;22.05;64.76;100212.88;4960397;28;20613;-75
2022/06/21 00:33:15;;;;;;;0.10;0.10;;;;;;;22.07;64.39;100220.94;4977832;28;20377;-75
2022/06/21 00:35:43;;;;;;;0.10;0.10;;;;;;;21.99;64.89;100214.63;4977434;28;20019;-75
2022/06/21 00:38:15;;;;;;;0.10;0.10;;;;;;;22.13;63.86;100207.88;4976407;28;20034;-75
2022/06/21 00:40:41;;;;;;;0.10;0.10;;;;;;;21.96;64.08;100199.31;4973145;28;20039;-75
2022/06/21 00:43:21;;;;;;;0.10;0.10;;;;;;;21.92;64.38;100214.78;4976110;28;20035;-75
2022/06/21 00:45:49;;;;;;;0.10;0.10;;;;;;;21.92;64.39;100212.75;4976325;28;20050;-75
2022/06/21 00:48:29;;;;;;;0.10;0.10;;;;;;;21.96;63.67;100204.97;4976030;28;20461;-75
2022/06/21 00:51:00;;;;;;;0.10;0.10;;;;;;;21.94;64.45;100206.66;4992128;28;20489;-75
2022/06/21 00:53:37;;;;;;;0.10;0.10;;;;;;;21.86;64.16;100199.56;4975873;28;20026;-75
2022/06/21 00:56:10;;;;;;;0.10;0.10;;;;;;;21.93;64.06;100205.06;4976377;28;20462;-75
2022/06/21 00:58:36;;;;;;;0.17;0.17;;;;;;;21.87;64.18;100204.78;4992296;28;20442;-75
2022/06/21 01:01:15;;;;;;;0.10;0.10;;;;;;;21.89;63.52;100204.34;4991980;28;20023;-75
2022/06/21 01:03:46;;;;;;;0.13;0.13;;;;;;;21.89;63.62;100210.81;4992004;28;20054;-75
2022/06/21 01:06:33;;;;;;;0.20;0.20;;;;;;;21.83;63.70;100206.88;4976833;28;20062;-75
2022/06/21 01:09:07;;;;;;;0.10;0.10;;;;;;;21.85;63.67;100210.09;4991281;28;20105;-75
2022/06/21 01:11:41;;;;;;;0.10;0.10;;;;;;;21.88;63.71;100206.38;4991987;28;20134;-75
2022/06/21 01:14:08;;;;;;;0.20;0.20;;;;;;;21.91;63.60;100211.16;4975205;28;20051;-75
2022/06/21 01:16:35;;;;;;;0.17;0.17;;;;;;;21.88;63.15;100203.53;4959827;28;20058;-75
2022/06/21 01:19:02;;;;;;;0.10;0.10;;;;;;;21.86;63.74;100199.56;4959299;28;20035;-75
2022/06/21 01:21:29;;;;;;;0.10;0.10;;;;;;;21.79;63.82;100211.88;4975166;28;20055;-75
2022/06/21 01:24:21;;;;;;;0.10;0.10;;;;;;;21.74;63.94;100201.06;4991549;28;20424;-75
2022/06/21 01:26:58;;;;;;;0.10;0.10;;;;;;;21.76;64.18;100194.94;4974931;28;20093;-75
2022/06/21 01:29:30;;;;;;;0.10;0.10;;;;;;;21.82;63.86;100188.31;4975042;28;20031;-75
2022/06/21 01:31:59;;;;;;;0.10;0.10;;;;;;;21.71;64.17;100196.25;4991178;28;20029;-75
2022/06/21 01:34:26;;;;;;;0.10;0.10;;;;;;;21.71;64.20;100199.09;4959316;28;20408;-75
2022/06/21 01:37:14;;;;;;;0.20;0.20;;;;;;;21.71;64.08;100193.41;4975103;28;20548;-75
2022/06/21 01:39:46;;;;;;;0.10;0.10;;;;;;;21.68;64.60;100194.31;4990818;28;20075;-74
2022/06/21 01:42:18;;;;;;;0.10;0.10;;;;;;;21.67;64.55;100189.88;4990977;28;20034;-74
2022/06/21 01:44:48;;;;;;;0.10;0.10;;;;;;;21.70;64.94;100183.34;4974953;28;20030;-75
2022/06/21 01:47:21;;;;;;;0.10;0.10;;;;;;;21.71;64.54;100185.72;4974621;28;20037;-74
2022/06/21 01:49:52;;;;;;;0.10;0.10;;;;;;;21.74;64.90;100181.22;4990740;28;20034;-74
2022/06/21 01:52:24;;;;;;;0.10;0.10;;;;;;;21.73;65.19;100173.16;4990766;28;20062;-75
2022/06/21 01:54:59;;;;;;;0.10;0.10;;;;;;;21.69;65.40;100176.09;4990815;28;20029;-74
2022/06/21 01:57:27;;;;;;;0.10;0.10;;;;;;;21.76;65.83;100173.09;4958839;28;20034;-75
2022/06/21 01:59:53;;;;;;;0.10;0.10;;;;;;;21.66;66.51;100174.91;4975763;28;20034;-75
2022/06/21 02:02:25;;;;;;;0.10;0.10;;;;;;;21.53;66.49;100165.53;4990575;28;20054;-75
2022/06/21 02:05:03;;;;;;;0.10;0.10;;;;;;;21.50;66.75;100165.59;4974844;28;20031;-74
2022/06/21 02:07:34;;;;;;;0.10;0.10;;;;;;;21.49;67.10;100178.16;4974286;28;20027;-74
2022/06/21 02:10:24;;;;;;;0.13;0.13;;;;;;;21.44;67.36;100168.94;4990928;28;20041;-74
2022/06/21 02:12:55;;;;;;;0.10;0.10;;;;;;;21.35;67.97;100160.22;4989731;28;20030;-74
2022/06/21 02:15:29;;;;;;;0.10;0.10;;;;;;;21.33;68.00;100159.88;4993701;28;20042;-74
2022/06/21 02:17:56;;;;;;;0.10;0.10;;;;;;;21.32;68.73;100168.81;4993538;28;20069;-74
2022/06/21 02:20:37;;;;;;;0.10;0.10;;;;;;;21.33;68.40;100168.38;4977227;28;20113;-75
2022/06/21 02:23:05;;;;;;;0.10;0.10;;;;;;;21.31;67.95;100153.88;4994703;28;20037;-74
2022/06/21 02:25:31;;;;;;;0.10;0.10;;;;;;;21.51;67.58;100155.84;4977101;28;20032;-74
2022/06/21 02:28:03;;;;;;;0.10;0.10;;;;;;;21.32;68.52;100155.47;4977966;28;20121;-75
2022/06/21 02:30:29;;;;;;;0.10;0.10;;;;;;;21.32;68.66;100160.31;4977647;28;20041;-74
2022/06/21 02:32:58;;;;;;;0.10;0.10;;;;;;;21.33;68.41;100159.09;4976946;28;20399;-75
2022/06/21 02:35:38;;;;;;;0.10;0.10;;;;;;;21.38;68.08;100159.38;4993817;28;20053;-74
2022/06/21 02:38:11;;;;;;;0.13;0.13;;;;;;;21.28;68.65;100160.38;4993207;28;20044;-74
2022/06/21 02:40:42;;;;;;;0.10;0.10;;;;;;;21.21;68.65;100152.03;4976948;28;20041;-74
2022/06/21 02:43:32;;;;;;;0.10;0.10;;;;;;;21.08;68.99;100129.25;4977169;28;20436;-74
2022/06/21 02:46:08;;;;;;;0.10;0.10;;;;;;;21.22;68.92;100155.66;4960915;28;20030;-74
2022/06/21 02:48:45;;;;;;;0.10;0.10;;;;;;;21.28;68.98;100157.53;4977300;28;20117;-74
2022/06/21 02:51:19;;;;;;;0.10;0.10;;;;;;;21.35;68.17;100148.13;4977081;28;20030;-74
2022/06/21 02:53:57;;;;;;;0.10;0.10;;;;;;;21.38;67.67;100142.38;4994882;28;20368;-75
2022/06/21 02:56:36;;;;;;;0.10;0.10;;;;;;;21.57;67.25;100152.09;4976822;28;20030;-74
2022/06/21 02:59:03;;;;;;;0.20;0.20;;;;;;;21.53;67.25;100150.56;4993643;28;20090;-75
2022/06/21 03:01:29;;;;;;;0.20;0.20;;;;;;;21.43;67.81;100161.69;4976866;28;20050;-74
2022/06/21 03:03:56;;;;;;;0.10;0.10;;;;;;;21.43;67.81;100156.03;4993038;28;20073;-74
2022/06/21 03:06:23;;;;;;;0.10;0.10;;;;;;;21.31;67.99;100148.22;4976967;28;20030;-74
2022/06/21 03:09:04;;;;;;;0.13;0.13;;;;;;;21.24;68.61;100141.88;4976568;28;20030;-75
2022/06/21 03:11:36;;;;;;;0.17;0.17;;;;;;;21.34;68.40;100158.63;4992783;28;20050;-75
2022/06/21 03:14:08;;;;;;;0.10;0.10;;;;;;;21.36;68.28;100161.84;4992373;28;20108;-75
2022/06/21 03:16:34;;;;;;;0.10;0.10;;;;;;;21.35;68.22;100154.56;4992958;28;20121;-75
2022/06/21 03:19:05;;;;;;;0.10;0.10;;;;;;;21.35;68.32;100154.56;4994255;28;20038;-74
2022/06/21 03:21:34;;;;;;;0.10;0.10;;;;;;;21.37;68.35;100163.44;4992660;28;20018;-75
2022/06/21 03:24:05;;;;;;;0.10;0.10;;;;;;;21.38;68.51;100162.19;4976673;28;20380;-74
2022/06/21 03:26:32;;;;;;;0.10;0.10;;;;;;;21.52;67.61;100174.44;4976373;28;20085;-74
2022/06/21 03:28:58;;;;;;;0.10;0.10;;;;;;;21.43;67.88;100173.00;4976378;28;20023;-75
2022/06/21 03:31:29;;;;;;;0.10;0.10;;;;;;;21.40;67.79;100182.34;4976897;28;20034;-74
2022/06/21 03:34:02;;;;;;;0.10;0.10;;;;;;;21.34;67.91;100183.31;4997748;28;20526;-74
2022/06/21 03:36:27;;;;;;;0.10;0.10;;;;;;;21.35;67.55;100180.03;4980840;28;20034;-74
2022/06/21 03:39:00;;;;;;;0.10;0.10;;;;;;;21.27;68.00;100180.63;4981028;28;20027;-75
2022/06/21 03:41:44;;;;;;;0.10;0.10;;;;;;;21.23;67.76;100180.69;4980176;28;20018;-74
2022/06/21 03:44:28;;;;;;;0.20;0.20;;;;;;;21.34;67.38;100186.94;4980653;28;20065;-75
2022/06/21 03:47:07;;;;;;;0.10;0.10;;;;;;;21.28;67.72;100187.88;4980586;28;20056;-74
2022/06/21 03:49:45;;;;;;;0.10;0.10;;;;;;;21.30;68.20;100189.03;4980609;28;20053;-74
2022/06/21 03:52:41;;;;;;;0.10;0.10;;;;;;;21.41;68.01;100186.81;4979994;28;20030;-74
2022/06/21 03:55:31;;;;;;;0.10;0.10;;;;;;;21.44;67.20;100168.94;4997097;28;20030;-74
2022/06/21 03:58:21;;;;;;;0.20;0.20;;;;;;;21.66;67.01;100183.41;4962374;28;20042;-74
2022/06/21 04:01:07;;;;;;;0.10;0.10;;;;;;;21.80;66.85;100187.97;4997573;28;20026;-74
2022/06/21 04:03:42;;;;;;;0.10;0.10;;;;;;;21.91;66.11;100179.22;4996163;28;20037;-74
2022/06/21 04:06:23;;;;;;;0.10;0.10;;;;;;;22.02;65.73;100173.28;4995877;28;20088;-75
2022/06/21 04:09:14;;;;;;;0.10;0.10;;;;;;;22.15;65.79;100179.88;4979689;28;20031;-74
2022/06/21 04:12:02;;;;;;;0.20;0.20;;;;;;;22.27;66.11;100184.06;4979616;28;20070;-75
2022/06/21 04:14:55;;;;;;;0.10;0.10;;;;;;;22.46;65.26;100191.66;4996478;28;20149;-75
2022/06/21 04:17:52;;;;;;;0.10;0.10;;;;;;;22.66;64.92;100191.53;4996497;28;20041;-74
2022/06/21 04:20:31;;;;;;;0.17;0.17;;;;;;;22.91;64.11;100194.53;4995944;28;20034;-75
2022/06/21 04:23:26;;;;;;;0.10;0.10;;;;;;;23.20;63.26;100202.25;4996432;28;20034;-75
2022/06/21 04:26:14;;;;;;;0.10;0.10;;;;;;;23.47;62.17;100202.66;4977731;28;20129;-74
2022/06/21 04:28:48;;;;;;;0.10;0.10;;;;;;;23.66;61.57;100208.63;4997703;28;20030;-74
2022/06/21 04:31:25;;;;;;;0.10;0.10;;;;;;;23.79;61.28;100183.88;4979595;28;20034;-75
2022/06/21 04:34:08;;;;;;;0.10;0.10;;;;;;;24.18;60.26;100211.03;4995659;28;20121;-74
2022/06/21 04:36:42;;;;;;;0.10;0.10;;;;;;;24.39;59.67;100203.84;4979976;28;20041;-74
2022/06/21 04:39:11;;;;;;;0.10;0.10;;;;;;;24.63;58.93;100212.03;4979312;28;20030;-75
2022/06/21 04:41:58;;;;;;;0.10;0.10;;;;;;;24.79;58.58;100211.84;4995569;28;20080;-74
2022/06/21 04:44:49;;;;;;;0.10;0.10;;;;;;;25.04;58.31;100226.00;4994964;28;20030;-75
2022/06/21 04:47:32;;;;;;;0.10;0.10;;;;;;;25.24;57.43;100234.25;4979407;28;20040;-75
2022/06/21 04:50:31;;;;;;;0.10;0.10;;;;;;;25.51;56.70;100233.63;4997058;28;20134;-75
2022/06/21 04:53:10;;;;;;;0.10;0.10;;;;;;;25.78;55.70;100223.69;4978954;28;20030;-75
2022/06/21 04:56:02;;;;;;;0.10;0.10;;;;;;;26.08;55.27;100231.44;4995884;28;20037;-75
2022/06/21 04:58:28;;;;;;;0.10;0.10;;;;;;;26.32;54.37;100225.22;4995626;28;20038;-75
2022/06/21 05:00:53;;;;;;;0.10;0.10;;;;;;;26.45;53.11;100223.06;4979466;28;20042;-75
2022/06/21 05:03:31;;;;;;;0.10;0.10;;;;;;;26.86;52.57;100223.75;4978894;28;20034;-75
2022/06/21 05:05:57;;;;;;;0.10;0.10;;;;;;;26.80;51.58;100226.47;4979313;28;20125;-74
2022/06/21 05:08:24;;;;;;;0.10;0.10;;;;;;;26.82;51.80;100229.63;4979685;28;20421;-74
2022/06/21 05:10:56;;;;;;;0.10;0.10;;;;;;;26.69;53.68;100231.84;4978937;28;20031;-74
2022/06/21 05:13:34;;;;;;;0.10;0.10;;;;;;;26.60;53.62;100231.81;4995986;28;20125;-75
2022/06/21 05:16:04;;;;;;;0.10;0.10;;;;;;;26.59;53.16;100235.94;4995374;28;20031;-75
2022/06/21 05:18:33;;;;;;;0.10;0.10;;;;;;;26.86;51.92;100235.19;4994758;28;20129;-74
2022/06/21 05:21:12;;;;;;;0.10;0.10;;;;;;;26.44;54.33;100238.59;4994684;28;20484;-74
2022/06/21 05:23:38;;;;;;;0.10;0.10;;;;;;;26.50;52.89;100236.69;4978499;28;20034;-75
2022/06/21 05:26:12;;;;;;;0.10;0.10;;;;;;;26.74;53.49;100236.09;4978238;28;20026;-75
2022/06/21 05:28:45;;;;;;;0.10;0.10;;;;;;;26.42;54.15;100235.41;4978397;28;20034;-75
2022/06/21 05:31:31;;;;;;;;;;;;;;;26.69;53.69;100239.59;4994808;28;20031;-75
2022/06/21 05:34:01;;;;;;;0.10;0.10;;;;;;;26.10;56.82;100231.78;4977286;28;19910;-74
2022/06/21 05:36:32;;;;;;;0.10;0.10;;;;;;;26.72;54.42;100230.09;4994798;28;20035;-75
2022/06/21 05:39:07;;;;;;;0.10;0.10;;;;;;;26.90;52.96;100221.56;4977333;28;20031;-75
2022/06/21 05:41:44;;;;;;;0.10;0.10;;;;;;;26.89;52.35;100215.03;4995464;28;20453;-75
2022/06/21 05:44:30;;;;;;;0.10;0.10;;;;;;;27.35;52.42;100231.41;4978316;28;20025;-74
2022/06/21 05:47:22;;;;;;;0.10;0.10;;;;;;;27.71;51.01;100229.78;4967272;28;20038;-74
2022/06/21 05:49:49;;;;;;;0.10;0.10;;;;;;;27.37;52.61;100237.41;4978110;28;20030;-75
2022/06/21 05:52:37;;;;;;;0.10;0.10;;;;;;;27.37;52.33;100243.13;4993971;28;20026;-75
2022/06/21 05:55:11;;;;;;;0.10;0.10;;;;;;;27.85;51.25;100247.03;4977553;28;20022;-75
2022/06/21 05:57:48;;;;;;;0.17;0.17;;;;;;;28.15;50.73;100253.78;4978284;28;20038;-75
2022/06/21 06:00:21;;;;;;;0.10;0.10;;;;;;;28.65;48.47;100251.31;4995360;28;20029;-75
2022/06/21 06:02:52;;;;;;;0.10;0.10;;;;;;;28.91;49.02;100253.69;4993825;28;20045;-75
2022/06/21 06:05:25;;;;;;;0.10;0.10;;;;;;;28.88;48.73;100252.63;4977273;28;20544;-75
2022/06/21 06:07:56;;;;;;;0.10;0.10;;;;;;;29.15;47.38;100260.22;4994351;28;20060;-74
2022/06/21 06:10:23;;;;;;;0.10;0.10;;;;;;;28.76;49.30;100267.94;4977762;28;20022;-75
2022/06/21 06:12:56;;;;;;;0.10;0.10;;;;;;;28.57;49.86;100257.91;4993767;28;20518;-74
2022/06/21 06:15:34;;;;;;;0.10;0.10;;;;;;;29.12;48.38;100266.13;4994142;28;20034;-75
2022/06/21 06:18:02;;;;;;;0.10;0.10;;;;;;;28.82;48.24;100253.78;4977233;28;20027;-75
2022/06/21 06:20:46;;;;;;;0.10;0.10;;;;;;;28.76;49.19;100272.88;4977625;28;20105;-75
2022/06/21 06:23:17;;;;;;;0.10;0.10;;;;;;;28.43;49.47;100250.81;4994050;28;20030;-75
2022/06/21 06:25:58;;;;;;;0.10;0.10;;;;;;;28.81;48.96;100270.13;4993531;28;20030;-75
2022/06/21 06:28:48;;;;;;;0.10;0.10;;;;;;;29.15;48.14;100274.56;4977043;28;20117;-75
2022/06/21 06:31:23;;;;;;;0.10;0.10;;;;;;;28.71;48.36;100263.72;4993508;28;20026;-75
2022/06/21 06:34:05;;;;;;;0.10;0.10;;;;;;;28.62;49.15;100288.72;4977438;28;20026;-75
2022/06/21 06:36:42;;;;;;;0.10;0.10;;;;;;;28.29;50.35;100288.69;4993177;28;20026;-75
2022/06/21 06:39:22;;;;;;;0.10;0.10;;;;;;;28.82;49.58;100291.78;4994690;28;20113;-74
2022/06/21 06:42:12;;;;;;;0.10;0.10;;;;;;;28.64;49.43;100301.25;4993109;28;20022;-75
2022/06/21 06:44:51;;;;;;;0.10;0.10;;;;;;;29.40;47.90;100310.50;4976973;28;20026;-75
2022/06/21 06:47:25;;;;;;;0.10;0.10;;;;;;;29.85;45.64;100304.84;4993205;28;20034;-75
2022/06/21 06:50:03;;;;;;;0.10;0.10;;;;;;;29.81;46.37;100299.31;4992955;28;20038;-74
2022/06/21 06:53:07;;;;;;;0.10;0.10;;;;;;;29.15;48.80;100311.81;4993097;28;20085;-75
2022/06/21 06:55:44;;;;;;;0.10;0.10;;;;;;;29.31;47.67;100307.69;4963935;28;20057;-74
2022/06/21 06:58:40;;;;;;;0.10;0.10;;;;;;;30.39;44.92;100311.28;4977060;28;20034;-75
2022/06/21 07:01:09;;;;;;;0.10;0.10;;;;;;;29.91;46.22;100305.75;4976656;28;20022;-75
2022/06/21 07:03:39;;;;;;;0.10;0.10;;;;;;;30.20;45.81;100320.13;4993066;28;20464;-75
2022/06/21 07:06:15;;;;;;;0.10;0.10;;;;;;;30.22;45.18;100316.75;4992541;28;20121;-75
2022/06/21 07:09:15;;;;;;;0.10;0.10;;;;;;;31.33;43.52;100327.56;4992719;28;20074;-75
2022/06/21 07:11:43;;;;;;;0.10;0.10;;;;;;;31.66;41.78;100299.19;4992855;28;20076;-75
2022/06/21 07:14:16;;;;;;;0.10;0.10;;;;;;;31.87;41.72;100319.28;4989191;28;20050;-74
2022/06/21 07:16:42;;;;;;;;;;;;;;;31.71;42.56;100335.84;4990898;28;20385;-75
2022/06/21 07:19:10;;;;;;;0.10;0.10;;;;;;;32.34;41.72;100321.56;4973404;28;19925;-75
2022/06/21 07:21:38;;;;;;;0.10;0.10;;;;;;;31.77;41.67;100319.44;4973857;28;20085;-75
2022/06/21 07:24:13;;;;;;;0.10;0.10;;;;;;;31.78;42.47;100317.34;4942294;28;20023;-75
2022/06/21 07:26:47;;;;;;;0.10;0.10;;;;;;;31.96;41.44;100298.97;4989602;28;20492;-75
2022/06/21 07:29:18;;;;;;;0.10;0.10;;;;;;;31.35;41.96;100305.63;4989556;28;20034;-75
2022/06/21 07:31:49;;;;;;;0.10;0.10;;;;;;;30.84;43.72;100309.91;4990078;28;20031;-75
2022/06/21 07:34:43;;;;;;;0.10;0.10;;;;;;;30.56;44.24;100312.31;4989470;28;20465;-75
2022/06/21 07:37:20;;;;;;;0.10;0.10;;;;;;;31.40;42.38;100310.66;4973811;28;20038;-75
2022/06/21 07:39:51;;;;;;;0.10;0.10;;;;;;;31.68;41.28;100302.31;4974599;28;20465;-75
2022/06/21 07:42:31;;;;;;;0.10;0.10;;;;;;;31.77;41.36;100313.69;4973493;28;20030;-75
2022/06/21 07:45:31;;;;;;;0.10;0.10;;;;;;;32.37;40.13;100310.34;4973220;28;20047;-75
2022/06/21 07:48:12;;;;;;;0.10;0.10;;;;;;;32.72;39.47;100313.75;4971270;28;20496;-76
2022/06/21 07:50:55;;;;;;;0.10;0.10;;;;;;;33.83;37.35;100318.44;4989209;28;20038;-75
2022/06/21 07:53:33;;;;;;;0.10;0.10;;;;;;;34.05;36.45;100311.94;4989736;28;20046;-75
2022/06/21 07:56:13;;;;;;;0.10;0.10;;;;;;;33.38;37.55;100317.50;4989516;28;20383;-75
2022/06/21 07:59:00;;;;;;;0.10;0.10;;;;;;;33.41;37.91;100321.44;4972942;28;20026;-74
2022/06/21 08:07:32;;;;;;;0.10;0.10;;;;;;;33.00;38.05;100322.56;4974036;28;20097;-74
2022/06/21 08:10:04;;;;;;;0.10;0.10;;;;;;;33.42;37.82;100328.81;4988901;28;20039;-73
2022/06/21 08:12:30;;;;;;;0.10;0.10;;;;;;;34.26;36.54;100321.13;4989266;28;20030;-74
2022/06/21 08:14:58;;;;;;;0.10;0.10;;;;;;;34.03;36.17;100325.31;4972292;28;20059;-73
2022/06/21 08:17:42;;;;;;;0.10;0.10;;;;;;;34.42;35.81;100313.78;4972512;28;20030;-73
2022/06/21 08:20:12;;;;;;;0.10;0.10;;;;;;;33.46;36.66;100312.06;4992829;28;20122;-74
2022/06/21 08:22:47;;;;;;;0.10;0.10;;;;;;;33.09;37.72;100307.16;4977229;28;20117;-73
2022/06/21 08:25:33;;;;;;;0.10;0.10;;;;;;;31.62;40.29;100307.22;4992501;28;20031;-73
2022/06/21 08:28:23;;;;;;;0.10;0.10;;;;;;;31.26;40.87;100308.63;4993408;28;20064;-74
2022/06/21 08:30:54;;;;;;;0.10;0.10;;;;;;;31.18;41.13;100304.59;4993979;28;20030;-75
2022/06/21 08:33:39;;;;;;;0.10;0.10;;;;;;;31.07;41.49;100296.63;4976566;28;20031;-75
2022/06/21 08:36:18;;;;;;;0.10;0.10;;;;;;;30.80;42.45;100291.31;4976486;28;20026;-75
2022/06/21 08:39:01;;;;;;;0.10;0.10;;;;;;;31.29;40.69;100294.06;4976225;28;20084;-75
2022/06/21 08:44:38;;;;;;;0.10;0.10;;;;;;;30.72;42.34;100291.72;4976931;28;20045;-75
2022/06/21 08:47:22;;;;;;;0.10;0.10;;;;;;;32.32;39.31;100289.59;4992108;28;20117;-75
2022/06/21 08:50:06;;;;;;;0.10;0.10;;;;;;;32.31;39.01;100273.63;4992891;28;20117;-74
2022/06/21 08:52:46;;;;;;;0.10;0.10;;;;;;;32.23;40.01;100281.16;4992322;28;20023;-75
2022/06/21 08:55:18;;;;;;;0.10;0.10;;;;;;;32.36;39.95;100289.41;4975920;28;20035;-74
2022/06/21 08:57:52;;;;;;;0.10;0.10;;;;;;;32.46;40.66;100298.63;4991922;28;20037;-74
2022/06/21 09:00:52;;;;;;;0.10;0.10;;;;;;;32.09;41.42;100290.72;4991692;28;20126;-75
2022/06/21 09:03:42;;;;;;;0.10;0.10;;;;;;;31.26;42.89;100288.53;4975803;28;20039;-75
2022/06/21 09:06:16;;;;;;;0.10;0.10;;;;;;;31.25;43.38;100293.47;4991710;28;20035;-75
2022/06/21 09:09:08;;;;;;;0.10;0.10;;;;;;;31.52;42.71;100294.31;4975765;28;20026;-76
2022/06/21 09:12:11;;;;;;;0.10;0.10;;;;;;;31.27;43.65;100290.91;4991375;28;20474;-75
2022/06/21 09:15:14;;;;;;;0.10;0.10;;;;;;;31.99;42.25;100286.44;4991339;28;20043;-75
2022/06/21 09:18:06;;;;;;;0.10;0.10;;;;;;;31.77;42.41;100282.03;4977050;28;20034;-74
2022/06/21 09:20:32;;;;;;;0.10;0.10;;;;;;;31.80;43.01;100277.34;4991436;28;20031;-75
2022/06/21 09:23:04;;;;;;;0.10;0.10;;;;;;;31.70;43.12;100276.75;4991637;28;20039;-75
2022/06/21 09:25:39;;;;;;;0.10;0.10;;;;;;;31.29;44.34;100281.78;4976692;28;20027;-75
2022/06/21 09:28:27;;;;;;;0.10;0.10;;;;;;;31.96;42.71;100288.28;4975157;28;20070;-76
2022/06/21 09:31:03;;;;;;;0.10;0.10;;;;;;;32.17;43.02;100288.94;4991034;28;20026;-75
2022/06/21 09:33:55;;;;;;;0.10;0.10;;;;;;;32.28;42.95;100285.38;4991307;28;20027;-76
2022/06/21 09:36:53;;;;;;;0.10;0.10;;;;;;;32.07;43.12;100276.06;4991869;28;20027;-75
2022/06/21 09:39:33;;;;;;;0.10;0.10;;;;;;;31.57;43.83;100282.09;4991412;28;20030;-76
2022/06/21 09:42:14;;;;;;;0.10;0.10;;;;;;;32.27;43.00;100278.03;4976208;28;20023;-76
2022/06/21 09:44:52;;;;;;;0.10;0.10;;;;;;;32.63;41.49;100281.47;4975929;28;20629;-75
2022/06/21 09:47:43;;;;;;;0.10;0.10;;;;;;;32.03;42.26;100269.75;4974897;28;20132;-75
2022/06/21 09:50:16;;;;;;;0.10;0.10;;;;;;;31.85;42.58;100272.97;4991502;28;20031;-75
2022/06/21 09:52:58;;;;;;;0.10;0.10;;;;;;;31.70;43.44;100276.75;4990857;28;20041;-74
2022/06/21 09:55:49;;;;;;;0.10;0.10;;;;;;;31.92;42.94;100269.66;4974817;28;20027;-75
2022/06/21 09:58:24;;;;;;;0.10;0.10;;;;;;;31.90;43.14;100254.97;4991593;28;20357;-75
2022/06/21 10:01:22;;;;;;;0.10;0.10;;;;;;;32.38;42.00;100274.47;4990647;28;20118;-75
2022/06/21 10:04:04;;;;;;;0.10;0.10;;;;;;;32.18;42.65;100267.53;4974656;28;20119;-74
2022/06/21 10:06:43;;;;;;;0.10;0.10;;;;;;;32.43;42.27;100279.50;4974422;28;20054;-74
2022/06/21 10:09:27;;;;;;;0.10;0.10;;;;;;;31.60;44.06;100249.44;4990688;28;20066;-74
2022/06/21 10:12:11;;;;;;;0.10;0.10;;;;;;;31.70;43.78;100276.75;4974186;28;20078;-75
2022/06/21 10:18:36;;;;;;;0.10;0.10;;;;;;;31.36;45.01;100269.03;5015792;23;20061;-76
2022/06/21 10:21:17;;;;;;;;;;;;;;;31.40;44.85;100269.63;4997208;28;20041;-77
2022/06/21 10:24:00;;;;;;;0.10;0.10;;;;;;;31.61;43.95;100261.75;4997309;28;19913;-77
2022/06/21 10:27:03;;;;;;;0.10;0.10;;;;;;;31.49;44.50;100257.97;4996514;28;20062;-77
2022/06/21 10:29:41;;;;;;;0.10;0.10;;;;;;;31.67;44.43;100251.88;4997399;28;20518;-77
2022/06/21 10:32:35;;;;;;;0.10;0.10;;;;;;;31.83;44.40;100249.69;4996693;28;20038;-77
2022/06/21 10:35:35;;;;;;;0.10;0.10;;;;;;;32.01;43.76;100252.19;4997230;28;20121;-77
2022/06/21 10:38:27;;;;;;;0.10;0.10;;;;;;;32.34;42.45;100255.34;4996530;28;20037;-77
2022/06/21 10:41:07;;;;;;;0.10;0.10;;;;;;;32.33;42.83;100230.75;4996346;28;20092;-77
2022/06/21 10:44:07;;;;;;;0.10;0.10;;;;;;;32.34;41.62;100243.81;4996080;28;20026;-77
2022/06/21 10:46:50;;;;;;;0.10;0.10;;;;;;;32.78;41.17;100238.88;4996935;28;20033;-77
2022/06/21 10:49:22;;;;;;;0.10;0.10;;;;;;;33.20;40.94;100229.38;4996321;28;20038;-78
2022/06/21 10:51:59;;;;;;;0.10;0.10;;;;;;;32.36;42.46;100223.19;5014575;28;20057;-77
2022/06/21 10:54:54;;;;;;;0.10;0.10;;;;;;;32.84;41.34;100222.38;4996060;28;20036;-76
2022/06/21 10:57:26;;;;;;;0.10;0.10;;;;;;;32.36;41.16;100239.66;4996275;28;20496;-76
2022/06/21 11:03:33;;;;;;;0.10;0.10;;;;;;;32.40;40.78;100232.38;4988570;28;20044;-77
2022/06/21 11:06:01;;;;;;;0.10;0.10;;;;;;;32.79;40.77;100232.56;4996074;28;20023;-77
2022/06/21 11:08:39;;;;;;;0.10;0.10;;;;;;;33.07;40.44;100238.47;4996101;28;20030;-77
2022/06/21 11:11:23;;;;;;;0.10;0.10;;;;;;;32.72;40.72;100247.47;4996018;28;20117;-77
2022/06/21 11:14:03;;;;;;;0.10;0.10;;;;;;;32.66;40.91;100240.91;5013967;28;20034;-77
2022/06/21 11:16:43;;;;;;;0.10;0.10;;;;;;;32.05;42.09;100232.59;4996724;28;20022;-77
2022/06/21 11:19:27;;;;;;;0.10;0.10;;;;;;;31.99;41.46;100234.66;4992528;28;20050;-77
2022/06/21 11:22:30;;;;;;;0.10;0.10;;;;;;;32.17;41.52;100236.34;4992716;28;20030;-77
2022/06/21 11:25:08;;;;;;;0.10;0.10;;;;;;;31.81;41.74;100230.84;4992854;28;20061;-77
2022/06/21 11:27:39;;;;;;;0.10;0.10;;;;;;;31.66;43.99;100226.50;4993198;28;20126;-77
2022/06/21 11:30:11;;;;;;;0.10;0.10;;;;;;;32.55;42.09;100223.56;4992785;28;20129;-77
2022/06/21 11:32:39;;;;;;;0.10;0.10;;;;;;;32.19;41.85;100223.03;4993400;28;20034;-78
2022/06/21 11:35:19;;;;;;;0.10;0.10;;;;;;;32.14;41.44;100218.03;4992670;28;20073;-77
2022/06/21 11:38:03;;;;;;;0.10;0.10;;;;;;;32.92;39.64;100217.75;4992983;28;20061;-77
2022/06/21 11:41:10;;;;;;;0.10;0.10;;;;;;;33.17;39.35;100220.97;4993482;28;20026;-77
2022/06/21 11:43:50;;;;;;;0.10;0.10;;;;;;;32.76;38.79;100213.47;4980257;28;20573;-77
2022/06/21 11:46:24;;;;;;;0.10;0.10;;;;;;;32.27;39.61;100192.47;4992563;28;20023;-77
2022/06/21 11:49:02;;;;;;;0.10;0.10;;;;;;;32.21;39.59;100208.91;4992545;28;20038;-77
2022/06/21 11:51:52;;;;;;;0.10;0.10;;;;;;;32.27;41.02;100206.06;4992501;28;20034;-77
2022/06/21 11:54:25;;;;;;;0.10;0.10;;;;;;;32.06;41.24;100202.53;4995478;28;20132;-77
2022/06/21 11:57:28;;;;;;;0.10;0.10;;;;;;;31.65;40.87;100153.81;4996236;28;20157;-77
2022/06/21 12:00:11;;;;;;;0.10;0.10;;;;;;;32.42;39.47;100186.56;4995683;28;20038;-77
2022/06/21 12:02:53;;;;;;;0.10;0.10;;;;;;;31.57;41.61;100201.56;4996698;28;20033;-77
2022/06/21 12:05:29;;;;;;;0.10;0.10;;;;;;;31.61;41.55;100187.75;4996249;28;20064;-77
2022/06/21 12:08:25;;;;;;;0.10;0.10;;;;;;;31.75;40.09;100180.31;4996979;28;20072;-77
2022/06/21 12:10:58;;;;;;;0.10;0.10;;;;;;;32.06;41.28;100188.13;4996379;28;20030;-77
2022/06/21 12:13:50;;;;;;;0.10;0.10;;;;;;;32.18;40.55;100161.03;4996912;28;20057;-77
2022/06/21 12:16:21;;;;;;;0.10;0.10;;;;;;;32.27;39.77;100183.84;4996263;28;20034;-77
2022/06/21 12:18:54;;;;;;;0.00;0.00;;;;;;;32.01;41.20;100181.06;4995761;28;20055;-77
2022/06/21 12:21:29;;;;;;;0.10;0.10;;;;;;;32.11;41.09;100175.88;4995776;28;20068;-77
2022/06/21 12:23:59;;;;;;;0.10;0.10;;;;;;;32.27;40.62;100185.91;4995820;28;20078;-77
2022/06/21 12:26:27;;;;;;;0.10;0.10;;;;;;;32.54;39.85;100181.66;4995721;28;20022;-77
2022/06/21 12:28:57;;;;;;;0.10;0.10;;;;;;;32.44;40.06;100186.03;4997509;28;20041;-77
2022/06/21 12:31:35;;;;;;;0.10;0.10;;;;;;;31.52;40.55;100162.06;4997580;28;20057;-76